Time;durP1;ratioP1;P1;durP2;ratioP2;P2;SDS_P1;SDS_P2;PMS_P1;PMS_P2;Temp;Humidity;BMP_temperature;BMP_pressure;BME280_temperature;BME280_humidity;BME280_pressure;Samples;Min_cycle;Max_cycle;Signal;HPM_P1;HPM_P2
2023/04/09 04:22:33;;;;;;;5.22;3.00;;;;;;;7.50;90.02;100934.66;5089370;28;20386;-67
2023/04/09 04:24:59;;;;;;;7.82;3.78;;;;;;;7.48;89.96;100947.19;5088302;28;20032;-68
2023/04/09 04:27:24;;;;;;;6.50;3.42;;;;;;;7.41;89.64;100946.06;5087799;28;20190;-68
2023/04/09 04:29:51;;;;;;;6.70;3.42;;;;;;;7.43;89.60;100953.88;5088115;28;20493;-68
2023/04/09 04:32:31;;;;;;;5.20;3.13;;;;;;;7.40;89.82;100952.34;5088211;28;20047;-68
2023/04/09 04:35:01;;;;;;;6.38;3.67;;;;;;;7.35;90.50;100950.06;5088101;28;20081;-68
2023/04/09 04:37:26;;;;;;;5.65;3.40;;;;;;;7.33;90.61;100956.50;5087643;28;20036;-68
2023/04/09 04:39:55;;;;;;;7.20;3.65;;;;;;;7.34;89.96;100959.00;5088103;28;20627;-69
2023/04/09 04:42:22;;;;;;;6.50;3.83;;;;;;;7.30;90.07;100957.63;5087757;28;20038;-68
2023/04/09 04:44:48;;;;;;;6.40;3.17;;;;;;;7.23;90.63;100953.81;5087802;28;20493;-68
2023/04/09 04:47:36;;;;;;;5.88;3.65;;;;;;;7.11;91.59;100954.91;5083011;28;20428;-68
2023/04/09 04:50:04;;;;;;;7.50;4.18;;;;;;;7.15;91.33;100955.47;5087679;28;20037;-68
2023/04/09 04:52:39;;;;;;;5.30;3.35;;;;;;;7.12;91.38;100956.56;5087836;28;20035;-69
2023/04/09 04:55:05;;;;;;;4.82;3.20;;;;;;;7.11;91.88;100960.19;5087733;28;20033;-69
2023/04/09 04:57:31;;;;;;;5.15;3.42;;;;;;;7.06;91.89;100957.94;5087293;28;20550;-68
2023/04/09 05:00:00;;;;;;;7.10;3.33;;;;;;;7.01;91.97;100956.66;5087547;28;20043;-68
2023/04/09 05:02:25;;;;;;;4.95;3.33;;;;;;;6.95;92.36;100959.84;5087540;28;20127;-68
2023/04/09 05:05:10;;;;;;;5.75;3.33;;;;;;;6.97;92.38;100956.06;5087424;28;20037;-68
2023/04/09 05:07:42;;;;;;;4.88;3.15;;;;;;;6.90;92.91;100957.56;5087201;28;20097;-68
2023/04/09 05:10:08;;;;;;;4.47;3.10;;;;;;;6.86;93.06;100966.78;5087392;28;20040;-68
2023/04/09 05:12:37;;;;;;;3.72;2.92;;;;;;;6.79;93.45;100968.28;5087959;28;20373;-67
2023/04/09 05:15:03;;;;;;;3.42;2.92;;;;;;;6.80;93.58;100964.66;5087302;28;20037;-68
2023/04/09 05:17:29;;;;;;;4.93;2.88;;;;;;;6.82;93.68;100959.22;5086836;28;20086;-68
2023/04/09 05:19:56;;;;;;;6.70;3.38;;;;;;;6.73;93.85;100967.00;5087235;28;20028;-68
2023/04/09 05:22:29;;;;;;;7.47;3.90;;;;;;;6.73;94.29;100960.84;5087426;28;20420;-67
2023/04/09 05:24:55;;;;;;;6.00;3.55;;;;;;;6.65;94.92;100974.75;5087224;28;20121;-68
2023/04/09 05:27:23;;;;;;;6.88;3.28;;;;;;;6.69;94.58;100970.00;5086693;28;20055;-67
2023/04/09 05:29:53;;;;;;;6.22;3.80;;;;;;;6.62;94.75;100975.00;5087098;28;20071;-68
2023/04/09 05:32:18;;;;;;;5.30;3.28;;;;;;;6.66;94.50;100976.44;5083618;28;20434;-69
2023/04/09 05:34:43;;;;;;;6.65;3.28;;;;;;;6.67;94.78;100978.09;5073346;28;20040;-68
2023/04/09 05:37:09;;;;;;;7.30;3.72;;;;;;;6.62;95.30;100984.75;5072936;28;20040;-69
2023/04/09 05:39:35;;;;;;;6.07;3.70;;;;;;;6.60;95.27;100981.41;5073296;28;20486;-69
2023/04/09 05:42:00;;;;;;;6.20;3.13;;;;;;;6.57;95.66;100977.19;5073207;28;20033;-67
2023/04/09 05:44:31;;;;;;;6.13;3.15;;;;;;;6.53;95.70;100976.63;5073254;28;20038;-67
2023/04/09 05:47:05;;;;;;;5.78;3.63;;;;;;;6.52;95.73;100980.25;5072834;28;20123;-69
2023/04/09 05:49:53;;;;;;;5.32;3.53;;;;;;;6.52;95.97;100977.59;5068435;28;20051;-66
2023/04/09 05:52:20;;;;;;;7.10;3.90;;;;;;;6.50;95.93;100981.31;5073240;28;20028;-67
2023/04/09 05:54:46;;;;;;;7.53;4.32;;;;;;;6.49;95.70;100979.66;5073044;28;20480;-67
2023/04/09 05:57:15;;;;;;;7.22;3.78;;;;;;;6.52;95.72;100984.69;5056395;28;20048;-65
2023/04/09 05:59:44;;;;;;;6.53;4.13;;;;;;;6.49;95.96;100980.47;5072985;28;20037;-66
2023/04/09 06:02:10;;;;;;;5.47;3.20;;;;;;;6.44;96.71;100985.31;5072876;28;20559;-66
2023/04/09 06:04:35;;;;;;;7.28;3.47;;;;;;;6.46;96.43;100983.41;5072846;28;20455;-66
2023/04/09 06:07:01;;;;;;;6.18;3.30;;;;;;;6.47;96.38;100985.06;5072390;28;20041;-62
2023/04/09 06:09:26;;;;;;;5.60;3.40;;;;;;;6.49;96.26;100984.94;5072765;28;20074;-61
2023/04/09 06:11:52;;;;;;;6.55;3.92;;;;;;;6.49;96.64;100987.59;5073902;28;20051;-61
2023/04/09 06:14:17;;;;;;;5.60;3.88;;;;;;;6.54;96.18;100977.47;5074003;28;20047;-61
2023/04/09 06:16:43;;;;;;;4.85;3.40;;;;;;;6.61;96.16;100989.22;5072606;28;20044;-61
2023/04/09 06:19:08;;;;;;;6.20;3.47;;;;;;;6.70;96.03;100988.41;5072356;28;20040;-61
2023/04/09 06:21:33;;;;;;;5.57;3.60;;;;;;;6.89;95.11;100995.63;5073677;28;20040;-61
2023/04/09 06:23:59;;;;;;;9.57;4.25;;;;;;;7.12;94.27;100990.19;5073777;28;20044;-65
2023/04/09 06:26:25;;;;;;;6.32;3.75;;;;;;;7.35;93.60;100992.50;5073630;28;20044;-54
2023/04/09 06:28:51;;;;;;;6.40;3.75;;;;;;;7.50;92.25;100998.28;5073380;28;20047;-53
2023/04/09 06:31:16;;;;;;;7.15;4.00;;;;;;;7.65;92.13;100988.13;5073622;28;20032;-54
2023/04/09 06:33:41;;;;;;;7.18;4.38;;;;;;;7.93;91.74;100988.28;5072400;28;20575;-53
2023/04/09 06:36:07;;;;;;;7.18;4.47;;;;;;;8.12;88.61;100985.66;5073500;28;20115;-59
2023/04/09 06:38:32;;;;;;;7.63;4.38;;;;;;;8.37;87.04;100982.47;5073132;28;20036;-61
2023/04/09 06:40:58;;;;;;;6.38;4.63;;;;;;;8.42;85.81;100985.56;5073452;28;20045;-61
2023/04/09 06:43:23;;;;;;;8.77;4.70;;;;;;;8.58;84.38;100989.44;5073054;28;20044;-61
2023/04/09 06:45:50;;;;;;;7.53;3.88;;;;;;;8.67;84.32;100993.88;5071324;28;20337;-62
2023/04/09 06:48:16;;;;;;;7.03;4.22;;;;;;;8.65;84.83;100988.72;5072891;28;20041;-62
2023/04/09 06:50:43;;;;;;;6.72;4.07;;;;;;;8.75;83.55;100995.84;5073143;28;20036;-61
2023/04/09 06:53:08;;;;;;;6.88;4.20;;;;;;;8.83;84.24;100996.78;5073155;28;20052;-62
2023/04/09 06:55:34;;;;;;;6.78;4.45;;;;;;;9.03;82.33;100996.75;5073013;28;20485;-62
2023/04/09 06:58:01;;;;;;;7.18;4.45;;;;;;;9.12;81.94;100998.50;5072789;28;20098;-62
2023/04/09 07:00:26;;;;;;;7.63;5.22;;;;;;;9.21;81.37;100992.34;5073805;28;20537;-61
2023/04/09 07:02:52;;;;;;;6.95;4.28;;;;;;;9.20;82.17;100998.66;5073753;28;20139;-62
2023/04/09 07:05:18;;;;;;;7.07;4.65;;;;;;;9.32;81.18;100989.47;5072760;28;20060;-61
2023/04/09 07:07:43;;;;;;;6.50;4.65;;;;;;;9.39;80.63;100987.06;5072571;28;20044;-62
2023/04/09 07:10:09;;;;;;;5.70;4.07;;;;;;;9.54;81.14;100985.59;5072708;28;20041;-61
2023/04/09 07:12:34;;;;;;;8.10;5.05;;;;;;;9.65;80.22;100988.06;5072655;28;20054;-62
2023/04/09 07:15:02;;;;;;;8.52;5.25;;;;;;;9.68;80.04;100990.41;5072543;28;20036;-62
2023/04/09 07:17:29;;;;;;;6.45;4.35;;;;;;;9.85;79.68;100991.44;5072332;28;20051;-62
2023/04/09 07:19:55;;;;;;;8.05;5.43;;;;;;;9.91;78.36;100985.50;5072656;28;20508;-62
2023/04/09 07:22:21;;;;;;;6.20;4.53;;;;;;;9.99;77.52;100988.25;5072478;28;20040;-62
2023/04/09 07:24:52;;;;;;;6.50;4.50;;;;;;;10.09;77.26;100996.16;5072598;28;20029;-62
2023/04/09 07:27:19;;;;;;;6.88;4.30;;;;;;;10.15;76.47;100992.03;5072180;28;20068;-62
2023/04/09 07:29:44;;;;;;;7.50;4.67;;;;;;;10.21;75.66;100996.75;5072664;28;20442;-61
2023/04/09 07:32:10;;;;;;;7.57;5.60;;;;;;;10.20;75.66;100997.75;5072386;28;20377;-63
2023/04/09 07:34:36;;;;;;;7.57;5.38;;;;;;;10.39;74.64;100999.47;5072461;28;20056;-61
2023/04/09 07:37:02;;;;;;;5.90;4.68;;;;;;;10.41;73.99;101000.13;5072187;28;20055;-62
2023/04/09 07:39:27;;;;;;;6.78;5.00;;;;;;;10.44;75.52;100992.69;5072294;28;20044;-61
2023/04/09 07:41:52;;;;;;;7.47;4.68;;;;;;;10.50;74.77;101002.72;5072267;28;20029;-60
2023/04/09 07:44:18;;;;;;;7.40;5.43;;;;;;;10.73;72.96;100996.88;5072405;28;20040;-63
2023/04/09 07:46:43;;;;;;;7.22;4.88;;;;;;;10.66;73.15;100995.84;5072149;28;20185;-67
2023/04/09 07:49:09;;;;;;;6.85;4.40;;;;;;;10.75;73.94;101005.53;5072027;28;20047;-63
2023/04/09 07:51:34;;;;;;;6.32;4.90;;;;;;;10.87;73.82;101007.81;5079688;28;20071;-62
2023/04/09 07:53:59;;;;;;;7.18;4.80;;;;;;;11.02;71.59;101023.22;5072418;28;20123;-61
2023/04/09 07:56:25;;;;;;;7.47;4.85;;;;;;;10.98;70.39;101017.38;5071859;28;20040;-62
2023/04/09 07:58:50;;;;;;;6.03;4.40;;;;;;;11.03;70.20;101016.91;5068879;28;20032;-63
2023/04/09 08:01:16;;;;;;;9.07;5.15;;;;;;;11.00;70.11;101014.53;5072035;28;20025;-61
2023/04/09 08:03:41;;;;;;;6.88;4.53;;;;;;;11.01;71.17;101014.38;5071908;28;20040;-61
2023/04/09 08:06:07;;;;;;;8.48;4.47;;;;;;;10.89;72.17;101015.66;5071948;28;20421;-62
2023/04/09 08:08:32;;;;;;;6.13;4.75;;;;;;;10.85;72.73;101008.97;5071110;28;20036;-63
2023/04/09 08:10:58;;;;;;;6.43;4.18;;;;;;;10.93;72.79;101013.50;5071910;28;20393;-63
2023/04/09 08:13:26;;;;;;;6.88;4.32;;;;;;;10.99;72.08;101012.88;5072006;28;20044;-64
2023/04/09 08:15:52;;;;;;;6.57;4.50;;;;;;;10.82;72.60;101007.47;5071742;28;20477;-64
2023/04/09 08:18:18;;;;;;;7.10;4.45;;;;;;;11.08;71.79;101012.78;5071648;28;20043;-63
2023/04/09 08:20:44;;;;;;;6.18;4.40;;;;;;;11.28;71.68;101012.53;5071829;28;20037;-63
2023/04/09 08:23:12;;;;;;;7.53;4.65;;;;;;;11.36;70.28;101015.25;5071606;28;20036;-62
2023/04/09 08:25:38;;;;;;;7.57;4.43;;;;;;;11.34;71.82;101004.72;5071684;28;20036;-62
2023/04/09 08:28:04;;;;;;;6.78;4.22;;;;;;;11.42;71.27;101014.63;5071459;28;20036;-63
2023/04/09 08:30:29;;;;;;;7.50;4.55;;;;;;;11.72;69.83;101015.03;5082049;28;20040;-63
2023/04/09 08:32:55;;;;;;;6.30;4.53;;;;;;;11.92;67.51;101017.31;5091927;28;20040;-62
2023/04/09 08:35:20;;;;;;;7.70;4.25;;;;;;;11.88;68.38;101020.47;5090641;28;20386;-62
2023/04/09 08:37:46;;;;;;;4.30;3.55;;;;;;;12.01;68.86;101014.66;5083553;28;20055;-64
2023/04/09 08:40:11;;;;;;;6.57;4.38;;;;;;;12.05;65.56;101010.66;5071674;28;20101;-63
2023/04/09 08:42:46;;;;;;;6.53;4.20;;;;;;;12.10;62.97;101013.66;5071626;28;20037;-63
2023/04/09 08:45:12;;;;;;;5.45;4.40;;;;;;;12.42;60.42;101010.19;5070328;28;20432;-62
2023/04/09 08:47:40;;;;;;;6.05;3.83;;;;;;;12.55;60.29;101013.22;5071232;28;20070;-63
2023/04/09 08:50:06;;;;;;;8.18;3.88;;;;;;;12.64;59.91;101011.34;5071533;28;20035;-63
2023/04/09 08:52:33;;;;;;;5.13;4.00;;;;;;;12.69;58.60;101004.50;5072035;28;20041;-62
2023/04/09 08:54:58;;;;;;;6.30;4.28;;;;;;;12.78;57.61;101008.03;5071606;28;20401;-63
2023/04/09 08:57:24;;;;;;;4.78;3.80;;;;;;;12.84;57.36;101009.16;5071180;28;20040;-62
2023/04/09 08:59:49;;;;;;;4.60;3.60;;;;;;;12.93;54.38;101003.66;5071514;28;20037;-63
2023/04/09 09:02:15;;;;;;;5.50;3.58;;;;;;;12.89;56.02;100996.13;5071461;28;20041;-62
2023/04/09 09:04:48;;;;;;;4.88;3.35;;;;;;;13.01;55.57;101008.97;5071385;28;20101;-62
2023/04/09 09:07:15;;;;;;;5.50;3.40;;;;;;;13.13;53.90;101009.44;5071463;28;20121;-63
2023/04/09 09:09:55;;;;;;;4.45;3.15;;;;;;;13.02;54.20;101012.47;5075152;28;20072;-63
2023/04/09 09:12:38;;;;;;;5.03;3.33;;;;;;;13.35;53.54;101021.28;5075186;28;20617;-62
2023/04/09 09:15:05;;;;;;;3.65;3.22;;;;;;;13.56;54.59;101016.19;5075089;28;20041;-63
2023/04/09 09:17:31;;;;;;;3.72;2.60;;;;;;;13.87;50.28;101015.34;5074593;28;20040;-62
2023/04/09 09:19:57;;;;;;;4.72;2.85;;;;;;;14.03;48.74;101025.16;5074977;28;20070;-62
2023/04/09 09:22:24;;;;;;;2.90;2.20;;;;;;;13.83;48.58;101011.38;5074877;28;20111;-63
2023/04/09 09:24:51;;;;;;;3.83;2.45;;;;;;;13.94;47.02;101023.53;5074854;28;20047;-63
2023/04/09 09:27:35;;;;;;;3.65;2.50;;;;;;;13.87;47.63;101020.72;5074459;28;20052;-63
2023/04/09 09:30:03;;;;;;;3.13;2.53;;;;;;;13.82;46.47;101012.38;5074718;28;20386;-62
2023/04/09 09:32:29;;;;;;;3.03;2.20;;;;;;;13.87;43.86;101020.72;5074568;28;20091;-63
2023/04/09 09:35:01;;;;;;;3.05;2.30;;;;;;;13.72;44.27;101017.94;5074715;28;20044;-62
2023/04/09 09:37:28;;;;;;;2.58;2.38;;;;;;;13.86;46.37;101019.03;5074276;28;20032;-62
2023/04/09 09:39:54;;;;;;;3.13;2.03;;;;;;;13.92;46.37;101014.84;5074695;28;20115;-62
2023/04/09 09:42:19;;;;;;;2.10;1.85;;;;;;;13.94;44.15;101015.47;5074412;28;20035;-62
2023/04/09 09:44:46;;;;;;;2.22;1.52;;;;;;;13.64;41.68;101003.78;5074785;28;20468;-64
2023/04/09 09:47:12;;;;;;;1.83;1.50;;;;;;;13.51;43.53;101015.03;5074093;28;20600;-62
2023/04/09 09:49:37;;;;;;;1.83;1.63;;;;;;;13.44;44.22;101011.41;5074260;28;20127;-62
2023/04/09 09:52:07;;;;;;;2.35;1.70;;;;;;;13.43;44.91;101015.91;5074213;28;20127;-62
2023/04/09 09:54:40;;;;;;;2.10;1.73;;;;;;;13.47;45.01;101011.03;5074350;28;20032;-62
2023/04/09 09:57:08;;;;;;;2.47;1.83;;;;;;;13.39;44.44;101011.06;5073722;28;20051;-62
2023/04/09 09:59:36;;;;;;;;;;;;;;;13.33;44.13;101012.59;5074628;28;20036;-62
2023/04/09 10:02:09;;;;;;;3.38;1.85;;;;;;;13.26;44.96;101012.44;5074171;28;20467;-62
2023/04/09 10:04:35;;;;;;;2.15;1.58;;;;;;;13.29;45.02;101017.44;5074145;28;20454;-62
2023/04/09 10:07:03;;;;;;;1.90;1.73;;;;;;;13.24;44.27;101009.13;5073779;28;20134;-62
2023/04/09 10:09:30;;;;;;;1.75;1.52;;;;;;;13.32;44.49;101010.09;5074151;28;20043;-62
2023/04/09 10:11:58;;;;;;;3.10;2.03;;;;;;;13.25;44.93;101005.44;5074052;28;20045;-62
2023/04/09 10:14:25;;;;;;;2.75;1.83;;;;;;;13.13;45.16;101004.09;5074109;28;20123;-62
2023/04/09 10:16:51;;;;;;;2.60;1.90;;;;;;;13.37;44.75;101002.41;5073648;28;20045;-61
2023/04/09 10:19:17;;;;;;;1.92;1.73;;;;;;;13.17;45.20;100994.75;5073207;28;20049;-62
2023/04/09 10:22:18;;;;;;;2.63;1.67;;;;;;;13.26;44.27;100990.22;5073754;28;20036;-62
2023/04/09 10:24:44;;;;;;;2.13;1.48;;;;;;;13.70;43.08;100990.53;5011776;28;20487;-62
2023/04/09 10:27:15;;;;;;;3.65;2.30;;;;;;;13.77;42.22;100983.47;5060822;28;20494;-62
2023/04/09 10:29:45;;;;;;;3.00;2.17;;;;;;;13.66;42.86;100988.38;5073687;28;20449;-62
2023/04/09 10:32:12;;;;;;;2.13;1.45;;;;;;;13.71;40.50;100986.00;5073653;28;20123;-62
2023/04/09 10:34:39;;;;;;;1.45;1.20;;;;;;;13.65;38.43;100982.19;5073577;28;20028;-63
2023/04/09 10:37:29;;;;;;;2.45;1.10;;;;;;;13.58;38.85;100984.72;5073227;28;20039;-62
2023/04/09 10:39:55;;;;;;;1.48;1.08;;;;;;;13.37;40.34;100973.78;5073199;28;20131;-62
2023/04/09 10:42:34;;;;;;;2.72;1.50;;;;;;;13.50;40.06;100975.91;5073549;28;20040;-63
2023/04/09 10:45:06;;;;;;;1.63;1.17;;;;;;;13.62;40.17;100976.34;5073325;28;20532;-62
2023/04/09 10:47:40;;;;;;;1.55;1.27;;;;;;;13.63;40.02;100984.22;5072938;28;20456;-63
2023/04/09 10:50:20;;;;;;;2.13;1.50;;;;;;;13.56;41.37;100981.41;5073363;28;20040;-62
2023/04/09 10:52:50;;;;;;;2.60;1.80;;;;;;;13.57;41.50;100980.38;5073228;28;20559;-59
2023/04/09 10:55:37;;;;;;;2.15;1.60;;;;;;;13.62;41.99;100979.00;5073134;28;20033;-60
2023/04/09 10:58:07;;;;;;;2.25;1.70;;;;;;;13.38;42.23;100970.09;5072930;28;20032;-59
2023/04/09 11:00:37;;;;;;;2.22;1.60;;;;;;;13.67;42.67;100976.66;5073050;28;20048;-61
2023/04/09 11:03:03;;;;;;;2.63;1.50;;;;;;;13.88;42.85;100971.50;5072985;28;20515;-59
2023/04/09 11:05:33;;;;;;;1.52;1.30;;;;;;;14.04;41.88;100967.88;5072992;28;20378;-61
2023/04/09 11:08:03;;;;;;;2.45;1.70;;;;;;;14.33;40.56;100965.28;5075848;28;20401;-61
2023/04/09 11:10:29;;;;;;;2.08;1.42;;;;;;;14.35;40.83;100973.19;5072702;28;20044;-60
2023/04/09 11:12:55;;;;;;;2.25;1.58;;;;;;;14.23;41.28;100961.22;5072359;28;20524;-61
2023/04/09 11:15:20;;;;;;;2.05;1.63;;;;;;;13.97;42.05;100973.13;5072234;28;20068;-61
2023/04/09 11:17:47;;;;;;;1.83;1.60;;;;;;;14.05;41.89;100965.03;5071843;28;20390;-60
2023/04/09 11:20:18;;;;;;;1.65;1.40;;;;;;;14.21;40.72;100964.06;5072124;28;20047;-59
2023/04/09 11:22:44;;;;;;;2.40;1.73;;;;;;;14.19;40.68;100959.91;5072237;28;20031;-60
2023/04/09 11:25:09;;;;;;;3.30;2.22;;;;;;;14.21;41.97;100963.22;5072115;28;20040;-60
2023/04/09 11:27:38;;;;;;;2.40;1.38;;;;;;;14.37;42.21;100960.44;5071928;28;20071;-60
2023/04/09 11:30:05;;;;;;;1.85;1.50;;;;;;;14.68;41.10;100956.84;5071579;28;20131;-59
2023/04/09 11:32:30;;;;;;;2.97;1.88;;;;;;;14.95;39.86;100955.38;5071910;28;20066;-59
2023/04/09 11:34:56;;;;;;;2.15;1.52;;;;;;;14.91;39.77;100950.38;5071883;28;20497;-58
2023/04/09 11:37:22;;;;;;;1.70;1.40;;;;;;;15.04;39.48;100948.88;5071304;28;20044;-60
2023/04/09 11:39:50;;;;;;;2.28;1.63;;;;;;;15.27;39.29;100970.28;5071764;28;20444;-60
2023/04/09 11:42:16;;;;;;;2.55;1.60;;;;;;;15.32;38.75;100957.97;5071657;28;20029;-60
2023/04/09 11:44:44;;;;;;;2.45;1.75;;;;;;;14.77;39.08;100959.25;5070515;28;20115;-57
2023/04/09 11:47:10;;;;;;;2.70;1.83;;;;;;;15.02;42.38;100956.31;5060129;28;20078;-57
2023/04/09 11:49:36;;;;;;;3.08;1.90;;;;;;;14.79;39.45;100954.50;5062514;28;20025;-64
2023/04/09 11:52:02;;;;;;;2.03;1.42;;;;;;;14.55;40.10;100958.28;5061109;28;20109;-64
2023/04/09 11:54:32;;;;;;;2.37;1.50;;;;;;;14.81;39.58;100955.19;5060554;28;20119;-61
2023/04/09 11:57:04;;;;;;;2.05;1.48;;;;;;;14.82;39.37;100967.56;5060372;28;20120;-63
2023/04/09 11:59:30;;;;;;;2.38;1.48;;;;;;;15.10;39.52;100965.06;5059512;28;20044;-61
2023/04/09 12:01:58;;;;;;;2.13;1.70;;;;;;;15.12;39.63;100954.16;5062369;28;20016;-62
2023/04/09 12:04:24;;;;;;;1.88;1.45;;;;;;;14.76;38.50;100948.69;5060276;28;20583;-61
2023/04/09 12:06:49;;;;;;;1.80;1.38;;;;;;;15.28;38.52;100959.34;5060396;28;20045;-64
2023/04/09 12:09:15;;;;;;;2.53;1.67;;;;;;;15.54;37.52;100956.16;5062043;28;20032;-62
2023/04/09 12:11:47;;;;;;;2.20;1.60;;;;;;;15.23;38.19;100951.00;5060083;28;20398;-63
2023/04/09 12:14:16;;;;;;;2.00;1.58;;;;;;;15.37;38.60;100950.16;5058903;28;20025;-64
2023/04/09 12:16:45;;;;;;;1.63;1.38;;;;;;;14.99;37.93;100946.75;5061628;28;20021;-62
2023/04/09 12:19:12;;;;;;;2.15;1.73;;;;;;;15.10;38.42;100948.16;5062473;28;20044;-62
2023/04/09 12:22:03;;;;;;;1.63;1.45;;;;;;;15.16;39.20;100958.97;5060497;28;20029;-62
2023/04/09 12:24:29;;;;;;;1.73;1.20;;;;;;;15.57;38.19;100945.03;5060096;28;20087;-62
2023/04/09 12:26:56;;;;;;;2.58;1.70;;;;;;;16.05;35.74;100947.22;5060085;28;20056;-61
2023/04/09 12:29:21;;;;;;;2.33;1.47;;;;;;;16.91;35.02;100935.31;5061726;28;20040;-61
2023/04/09 12:31:47;;;;;;;2.30;1.70;;;;;;;17.44;33.26;100942.81;5061726;28;20671;-62
2023/04/09 12:34:12;;;;;;;2.03;1.50;;;;;;;17.42;33.22;100939.50;5065924;28;20072;-62
2023/04/09 12:36:40;;;;;;;2.17;1.50;;;;;;;17.16;33.75;100940.22;5070371;28;20036;-60
2023/04/09 12:39:06;;;;;;;2.13;1.65;;;;;;;17.07;34.47;100932.28;5071341;28;20394;-63
2023/04/09 12:41:31;;;;;;;1.48;1.38;;;;;;;16.66;34.68;100929.53;5071612;28;20043;-61
2023/04/09 12:43:57;;;;;;;2.33;1.50;;;;;;;16.47;34.96;100927.53;5065961;28;20127;-61
2023/04/09 12:46:22;;;;;;;2.15;1.70;;;;;;;16.43;34.70;100923.56;5064133;28;20016;-62
2023/04/09 12:48:48;;;;;;;2.22;1.60;;;;;;;16.24;34.82;100925.91;5065854;28;20477;-64
2023/04/09 12:51:14;;;;;;;2.72;1.77;;;;;;;16.02;35.96;100926.94;5065051;28;20032;-62
2023/04/09 12:53:39;;;;;;;2.05;1.60;;;;;;;16.37;34.43;100927.88;5055011;28;20466;-61
2023/04/09 12:56:06;;;;;;;1.65;1.38;;;;;;;16.52;34.18;100925.09;5064634;28;20036;-61
2023/04/09 12:58:31;;;;;;;2.75;1.92;;;;;;;16.91;33.63;100911.09;5064386;28;20029;-63
2023/04/09 13:00:57;;;;;;;2.40;1.67;;;;;;;17.38;32.78;100916.69;5064668;28;20021;-63
2023/04/09 13:03:23;;;;;;;2.40;1.67;;;;;;;17.34;32.72;100924.31;5065914;28;20032;-65
2023/04/09 13:05:49;;;;;;;2.00;1.55;;;;;;;17.37;32.27;100910.47;5068406;28;20127;-64
2023/04/09 13:08:15;;;;;;;3.38;2.17;;;;;;;17.69;32.78;100906.22;5074939;28;20151;-64
2023/04/09 13:10:40;;;;;;;1.92;1.48;;;;;;;17.66;31.69;100913.88;5075172;28;20036;-62
2023/04/09 13:13:10;;;;;;;1.52;1.40;;;;;;;17.32;32.18;100910.25;5075113;28;20043;-63
2023/04/09 13:15:37;;;;;;;1.80;1.50;;;;;;;17.25;32.17;100914.78;5075019;28;20501;-62
2023/04/09 13:18:02;;;;;;;2.05;1.45;;;;;;;17.32;32.76;100905.69;5074972;28;20042;-64
2023/04/09 13:20:28;;;;;;;1.45;1.05;;;;;;;17.92;31.79;100913.94;5074968;28;20123;-61
2023/04/09 13:22:53;;;;;;;1.77;1.38;;;;;;;18.09;30.98;100901.75;5075156;28;20052;-65
2023/04/09 13:25:19;;;;;;;2.65;1.60;;;;;;;18.03;30.98;100899.03;5074633;28;20039;-63
2023/04/09 13:27:44;;;;;;;2.78;1.75;;;;;;;17.69;32.42;100894.63;5074292;28;20459;-61
2023/04/09 13:30:10;;;;;;;13.52;6.53;;;;;;;17.21;33.16;100895.50;5074709;28;20036;-61
2023/04/09 13:32:36;;;;;;;2.63;1.50;;;;;;;17.81;32.40;100887.63;5074593;28;20484;-64
2023/04/09 13:35:01;;;;;;;2.58;1.88;;;;;;;17.73;32.77;100887.81;5074582;28;20477;-64
2023/04/09 13:37:26;;;;;;;2.05;1.60;;;;;;;18.35;33.12;100887.44;5074316;28;20082;-61
2023/04/09 13:39:52;;;;;;;2.15;1.60;;;;;;;19.07;30.79;100885.63;5074410;28;20392;-62
2023/04/09 13:42:17;;;;;;;2.17;1.77;;;;;;;19.87;29.58;100885.25;5074665;28;20172;-64
2023/04/09 13:44:46;;;;;;;1.48;1.23;;;;;;;20.05;29.88;100882.59;5074585;28;20026;-63
2023/04/09 13:47:12;;;;;;;2.08;1.55;;;;;;;19.26;30.17;100878.50;5074142;28;20040;-63
2023/04/09 13:49:38;;;;;;;1.77;1.40;;;;;;;19.07;30.27;100877.53;5074566;28;20044;-65
2023/04/09 13:52:04;;;;;;;2.58;1.65;;;;;;;18.56;30.68;100877.44;5074360;28;20032;-64
2023/04/09 13:54:30;;;;;;;1.80;1.50;;;;;;;17.82;31.47;100865.03;5073861;28;20059;-65
2023/04/09 13:56:56;;;;;;;2.05;1.60;;;;;;;18.10;31.96;100865.66;5074180;28;20043;-62
2023/04/09 13:59:21;;;;;;;1.42;1.30;;;;;;;17.69;33.38;100854.22;5074358;28;20040;-62
2023/04/09 14:01:46;;;;;;;1.60;1.38;;;;;;;17.79;33.56;100852.78;5074467;28;20481;-63
2023/04/09 14:04:12;;;;;;;1.52;1.20;;;;;;;17.61;32.78;100858.75;5074350;28;20047;-65
2023/04/09 14:06:37;;;;;;;1.88;1.60;;;;;;;17.21;33.43;100862.34;5074185;28;20052;-64
2023/04/09 14:09:03;;;;;;;2.00;1.55;;;;;;;16.05;34.32;100855.88;5073812;28;20118;-63
2023/04/09 14:11:28;;;;;;;2.13;1.65;;;;;;;15.77;35.59;100858.50;5074052;28;20066;-64
2023/04/09 14:13:54;;;;;;;1.65;1.45;;;;;;;15.67;34.95;100850.78;5073957;28;20047;-61
2023/04/09 14:16:20;;;;;;;1.75;1.50;;;;;;;15.45;35.92;100847.19;5074049;28;20393;-63
2023/04/09 14:18:45;;;;;;;2.03;1.50;;;;;;;15.18;36.49;100854.94;5073721;28;20105;-62
2023/04/09 14:21:10;;;;;;;2.42;1.80;;;;;;;15.36;35.63;100841.13;5073624;28;20036;-61
2023/04/09 14:23:37;;;;;;;2.42;1.58;;;;;;;15.47;36.27;100826.38;5073711;28;20047;-64
2023/04/09 14:26:04;;;;;;;2.28;1.70;;;;;;;15.56;36.46;100830.59;5073721;28;20040;-64
2023/04/09 14:28:31;;;;;;;2.15;1.70;;;;;;;15.33;35.84;100824.59;5073396;28;20509;-62
2023/04/09 14:30:58;;;;;;;2.15;1.50;;;;;;;15.19;36.36;100819.06;5073719;28;20079;-63
2023/04/09 14:33:24;;;;;;;2.83;1.73;;;;;;;15.18;36.33;100821.91;5073661;28;20481;-63
2023/04/09 14:35:49;;;;;;;2.30;1.40;;;;;;;15.29;37.39;100817.91;5073555;28;20174;-62
2023/04/09 14:38:16;;;;;;;2.58;1.63;;;;;;;15.24;36.54;100815.81;5073098;28;20088;-64
2023/04/09 14:40:42;;;;;;;2.05;1.63;;;;;;;15.20;36.08;100806.47;5073663;28;20401;-63
2023/04/09 14:43:08;;;;;;;1.50;1.40;;;;;;;14.88;36.55;100787.13;5073348;28;20032;-62
2023/04/09 14:45:34;;;;;;;1.98;1.52;;;;;;;14.60;38.30;100807.59;5073140;28;20032;-62
2023/04/09 14:47:59;;;;;;;2.13;1.60;;;;;;;14.79;37.29;100807.00;5072798;28;20551;-63
2023/04/09 14:50:25;;;;;;;1.80;1.50;;;;;;;14.93;37.56;100803.50;5073169;28;20041;-63
2023/04/09 14:52:51;;;;;;;2.97;1.58;;;;;;;15.07;36.61;100798.28;5073062;28;20048;-62
2023/04/09 14:55:17;;;;;;;1.80;1.45;;;;;;;15.10;36.89;100796.03;5073055;28;20041;-62
2023/04/09 14:57:42;;;;;;;1.40;1.20;;;;;;;15.25;37.20;100793.31;5072951;28;20366;-61
2023/04/09 15:00:10;;;;;;;2.15;1.48;;;;;;;15.12;36.10;100791.31;5073008;28;20051;-63
2023/04/09 15:02:37;;;;;;;1.77;1.50;;;;;;;15.15;36.48;100780.22;5072953;28;20028;-65
2023/04/09 15:05:03;;;;;;;2.20;1.70;;;;;;;15.38;36.13;100800.66;5072185;28;20037;-62
2023/04/09 15:07:29;;;;;;;2.42;1.52;;;;;;;15.47;35.80;100788.78;5072215;28;20040;-63
2023/04/09 15:09:58;;;;;;;3.95;2.65;;;;;;;15.41;36.02;100793.06;5072818;28;20043;-62
2023/04/09 15:12:24;;;;;;;1.85;1.52;;;;;;;15.33;36.52;100787.00;5072654;28;20040;-64
2023/04/09 15:14:49;;;;;;;1.77;1.60;;;;;;;15.62;35.99;100791.44;5072954;28;20044;-62
2023/04/09 15:17:15;;;;;;;2.40;1.60;;;;;;;15.62;35.96;100778.00;5072390;28;20043;-61
2023/04/09 15:19:40;;;;;;;2.13;1.67;;;;;;;15.68;35.71;100793.34;5072656;28;20569;-64
2023/04/09 15:22:06;;;;;;;2.13;1.60;;;;;;;15.67;35.53;100783.63;5072448;28;20043;-65
2023/04/09 15:24:31;;;;;;;2.25;1.65;;;;;;;15.67;36.19;100783.63;5072646;28;20070;-62
2023/04/09 15:26:56;;;;;;;1.90;1.27;;;;;;;15.76;36.28;100785.16;5072115;28;20086;-63
2023/04/09 15:29:22;;;;;;;2.20;1.33;;;;;;;15.82;35.72;100787.06;5072449;28;20400;-65
2023/04/09 15:31:48;;;;;;;2.22;1.55;;;;;;;15.76;36.84;100782.47;5072391;28;20040;-63
2023/04/09 15:34:14;;;;;;;1.90;1.58;;;;;;;15.70;36.24;100778.69;5072290;28;20520;-64
2023/04/09 15:36:39;;;;;;;2.17;1.55;;;;;;;15.74;35.85;100779.16;5072222;28;20119;-65
2023/04/09 15:39:05;;;;;;;1.40;1.10;;;;;;;15.73;36.50;100782.88;5072209;28;20040;-64
2023/04/09 15:41:32;;;;;;;2.17;1.50;;;;;;;15.51;35.74;100778.47;5072096;28;20082;-65
2023/04/09 15:43:58;;;;;;;3.05;2.00;;;;;;;15.44;36.20;100779.25;5072299;28;20086;-62
2023/04/09 15:46:23;;;;;;;1.60;1.50;;;;;;;15.37;36.46;100785.59;5072203;28;20409;-63
2023/04/09 15:48:49;;;;;;;1.63;1.45;;;;;;;15.33;36.03;100776.28;5070812;28;20087;-63